sensor_id;sensor_type;location;lat;lon;timestamp;temperature;humidity
71291;DHT22;59073;51.994;4.448;2023-05-18T00:02:03;8.92;73.89
71291;DHT22;59073;51.994;4.448;2023-05-18T00:04:29;8.91;73.46
71291;DHT22;59073;51.994;4.448;2023-05-18T00:06:55;8.92;73.44
71291;DHT22;59073;51.994;4.448;2023-05-18T00:09:32;8.93;73.52
71291;DHT22;59073;51.994;4.448;2023-05-18T00:11:58;9.12;72.92
71291;DHT22;59073;51.994;4.448;2023-05-18T00:14:25;9.04;73.12
71291;DHT22;59073;51.994;4.448;2023-05-18T00:16:50;8.98;73.75
71291;DHT22;59073;51.994;4.448;2023-05-18T00:19:19;8.91;74.06
71291;DHT22;59073;51.994;4.448;2023-05-18T00:21:46;8.89;74.08
71291;DHT22;59073;51.994;4.448;2023-05-18T00:24:13;8.91;74.24
71291;DHT22;59073;51.994;4.448;2023-05-18T00:26:40;8.98;74.36
71291;DHT22;59073;51.994;4.448;2023-05-18T00:29:06;8.93;74.63
71291;DHT22;59073;51.994;4.448;2023-05-18T00:31:32;8.87;75.10
71291;DHT22;59073;51.994;4.448;2023-05-18T00:34:12;8.93;75.19
71291;DHT22;59073;51.994;4.448;2023-05-18T00:36:38;9.07;74.83
71291;DHT22;59073;51.994;4.448;2023-05-18T00:39:05;9.09;74.63
71291;DHT22;59073;51.994;4.448;2023-05-18T00:41:32;8.89;74.99
71291;DHT22;59073;51.994;4.448;2023-05-18T00:43:57;8.67;76.78
71291;DHT22;59073;51.994;4.448;2023-05-18T00:46:24;8.82;76.87
71291;DHT22;59073;51.994;4.448;2023-05-18T00:48:52;8.97;75.21
71291;DHT22;59073;51.994;4.448;2023-05-18T00:51:19;9.12;73.77
71291;DHT22;59073;51.994;4.448;2023-05-18T00:53:45;9.11;73.23
71291;DHT22;59073;51.994;4.448;2023-05-18T00:56:11;9.12;73.17
71291;DHT22;59073;51.994;4.448;2023-05-18T00:58:40;9.19;73.07
71291;DHT22;59073;51.994;4.448;2023-05-18T01:01:07;9.26;72.52
71291;DHT22;59073;51.994;4.448;2023-05-18T01:03:37;9.23;72.90
71291;DHT22;59073;51.994;4.448;2023-05-18T01:06:07;9.20;72.74
71291;DHT22;59073;51.994;4.448;2023-05-18T01:08:35;9.18;72.60
71291;DHT22;59073;51.994;4.448;2023-05-18T01:11:18;9.16;72.78
71291;DHT22;59073;51.994;4.448;2023-05-18T01:14:08;9.15;72.77
71291;DHT22;59073;51.994;4.448;2023-05-18T01:16:59;9.01;72.80
71291;DHT22;59073;51.994;4.448;2023-05-18T01:19:49;8.92;73.14
71291;DHT22;59073;51.994;4.448;2023-05-18T01:22:58;8.97;73.24
71291;DHT22;59073;51.994;4.448;2023-05-18T01:25:37;9.01;73.09
71291;DHT22;59073;51.994;4.448;2023-05-18T01:28:08;8.85;73.50
71291;DHT22;59073;51.994;4.448;2023-05-18T01:30:40;8.79;74.37
71291;DHT22;59073;51.994;4.448;2023-05-18T01:33:10;8.68;74.19
71291;DHT22;59073;51.994;4.448;2023-05-18T01:35:37;8.77;74.27
71291;DHT22;59073;51.994;4.448;2023-05-18T01:38:03;8.88;74.16
71291;DHT22;59073;51.994;4.448;2023-05-18T01:40:36;9.02;73.60
71291;DHT22;59073;51.994;4.448;2023-05-18T01:43:10;9.01;73.15
71291;DHT22;59073;51.994;4.448;2023-05-18T01:45:43;9.02;72.76
71291;DHT22;59073;51.994;4.448;2023-05-18T01:48:17;9.07;72.68
71291;DHT22;59073;51.994;4.448;2023-05-18T01:50:47;9.08;72.80
71291;DHT22;59073;51.994;4.448;2023-05-18T01:53:24;8.91;72.88
71291;DHT22;59073;51.994;4.448;2023-05-18T01:55:53;8.79;73.69
71291;DHT22;59073;51.994;4.448;2023-05-18T01:58:20;8.89;73.15
71291;DHT22;59073;51.994;4.448;2023-05-18T02:00:47;8.99;73.13
71291;DHT22;59073;51.994;4.448;2023-05-18T02:03:13;9.05;72.81
71291;DHT22;59073;51.994;4.448;2023-05-18T02:05:39;9.01;72.80
71291;DHT22;59073;51.994;4.448;2023-05-18T02:08:04;8.89;72.77
71291;DHT22;59073;51.994;4.448;2023-05-18T02:10:30;8.97;73.25
71291;DHT22;59073;51.994;4.448;2023-05-18T02:12:56;8.89;73.08
71291;DHT22;59073;51.994;4.448;2023-05-18T02:15:21;8.95;73.04
71291;DHT22;59073;51.994;4.448;2023-05-18T02:17:47;8.87;73.05
71291;DHT22;59073;51.994;4.448;2023-05-18T02:20:13;8.77;73.66
71291;DHT22;59073;51.994;4.448;2023-05-18T02:22:43;8.51;74.57
71291;DHT22;59073;51.994;4.448;2023-05-18T02:25:10;8.71;74.01
71291;DHT22;59073;51.994;4.448;2023-05-18T02:27:35;8.77;73.59
71291;DHT22;59073;51.994;4.448;2023-05-18T02:30:04;8.72;73.51
71291;DHT22;59073;51.994;4.448;2023-05-18T02:32:32;8.78;73.50
71291;DHT22;59073;51.994;4.448;2023-05-18T02:35:06;8.77;73.57
71291;DHT22;59073;51.994;4.448;2023-05-18T02:37:32;8.81;73.49
71291;DHT22;59073;51.994;4.448;2023-05-18T02:40:09;8.77;73.38
71291;DHT22;59073;51.994;4.448;2023-05-18T02:42:35;8.71;73.66
71291;DHT22;59073;51.994;4.448;2023-05-18T02:45:00;8.68;73.35
71291;DHT22;59073;51.994;4.448;2023-05-18T02:47:26;8.60;74.00
71291;DHT22;59073;51.994;4.448;2023-05-18T02:49:52;8.48;74.77
71291;DHT22;59073;51.994;4.448;2023-05-18T02:52:17;8.63;75.44
71291;DHT22;59073;51.994;4.448;2023-05-18T02:54:43;8.61;75.24
71291;DHT22;59073;51.994;4.448;2023-05-18T02:57:08;8.67;75.37
71291;DHT22;59073;51.994;4.448;2023-05-18T02:59:36;8.63;75.59
71291;DHT22;59073;51.994;4.448;2023-05-18T03:02:03;8.68;75.41
71291;DHT22;59073;51.994;4.448;2023-05-18T03:04:28;8.71;75.91
71291;DHT22;59073;51.994;4.448;2023-05-18T03:06:53;8.81;75.65
71291;DHT22;59073;51.994;4.448;2023-05-18T03:09:21;8.75;75.69
71291;DHT22;59073;51.994;4.448;2023-05-18T03:11:47;8.77;75.37
71291;DHT22;59073;51.994;4.448;2023-05-18T03:14:12;8.56;75.81
71291;DHT22;59073;51.994;4.448;2023-05-18T03:16:38;8.63;75.99
71291;DHT22;59073;51.994;4.448;2023-05-18T03:19:03;8.72;75.46
71291;DHT22;59073;51.994;4.448;2023-05-18T03:21:29;8.75;75.18
71291;DHT22;59073;51.994;4.448;2023-05-18T03:24:01;8.68;75.19
71291;DHT22;59073;51.994;4.448;2023-05-18T03:26:27;8.56;75.44
71291;DHT22;59073;51.994;4.448;2023-05-18T03:28:58;8.61;75.06
71291;DHT22;59073;51.994;4.448;2023-05-18T03:31:24;8.65;74.72
71291;DHT22;59073;51.994;4.448;2023-05-18T03:33:50;8.61;74.88
71291;DHT22;59073;51.994;4.448;2023-05-18T03:36:15;8.50;74.63
71291;DHT22;59073;51.994;4.448;2023-05-18T03:38:41;8.57;73.82
71291;DHT22;59073;51.994;4.448;2023-05-18T03:41:10;8.61;73.66
71291;DHT22;59073;51.994;4.448;2023-05-18T03:43:35;8.58;73.62
71291;DHT22;59073;51.994;4.448;2023-05-18T03:46:01;8.50;73.41
71291;DHT22;59073;51.994;4.448;2023-05-18T03:48:28;8.48;73.16
71291;DHT22;59073;51.994;4.448;2023-05-18T03:50:54;8.46;73.38
71291;DHT22;59073;51.994;4.448;2023-05-18T03:53:20;8.47;73.36
71291;DHT22;59073;51.994;4.448;2023-05-18T03:55:46;8.44;73.33
71291;DHT22;59073;51.994;4.448;2023-05-18T03:58:14;8.43;73.21
71291;DHT22;59073;51.994;4.448;2023-05-18T04:00:39;8.14;74.41
71291;DHT22;59073;51.994;4.448;2023-05-18T04:03:07;8.25;74.06
71291;DHT22;59073;51.994;4.448;2023-05-18T04:05:40;8.30;73.63
71291;DHT22;59073;51.994;4.448;2023-05-18T04:08:08;8.34;73.27
71291;DHT22;59073;51.994;4.448;2023-05-18T04:10:35;8.50;72.95
71291;DHT22;59073;51.994;4.448;2023-05-18T04:13:00;8.46;72.62
71291;DHT22;59073;51.994;4.448;2023-05-18T04:15:26;8.44;73.20
71291;DHT22;59073;51.994;4.448;2023-05-18T04:17:51;8.58;72.25
71291;DHT22;59073;51.994;4.448;2023-05-18T04:20:18;8.47;72.65
71291;DHT22;59073;51.994;4.448;2023-05-18T04:22:45;8.40;73.34
71291;DHT22;59073;51.994;4.448;2023-05-18T04:25:16;8.32;73.25
71291;DHT22;59073;51.994;4.448;2023-05-18T04:27:42;8.27;73.76
71291;DHT22;59073;51.994;4.448;2023-05-18T04:30:10;8.50;72.98
71291;DHT22;59073;51.994;4.448;2023-05-18T04:32:36;8.51;72.71
71291;DHT22;59073;51.994;4.448;2023-05-18T04:35:06;8.68;72.66
71291;DHT22;59073;51.994;4.448;2023-05-18T04:37:32;8.81;71.76
71291;DHT22;59073;51.994;4.448;2023-05-18T04:39:58;9.07;71.62
71291;DHT22;59073;51.994;4.448;2023-05-18T04:42:29;9.47;70.03
71291;DHT22;59073;51.994;4.448;2023-05-18T04:44:55;9.64;69.83
71291;DHT22;59073;51.994;4.448;2023-05-18T04:47:20;10.04;68.53
71291;DHT22;59073;51.994;4.448;2023-05-18T04:49:49;10.00;67.86
71291;DHT22;59073;51.994;4.448;2023-05-18T04:52:17;9.76;68.72
71291;DHT22;59073;51.994;4.448;2023-05-18T04:54:44;9.63;69.59
71291;DHT22;59073;51.994;4.448;2023-05-18T04:57:09;9.47;70.60
71291;DHT22;59073;51.994;4.448;2023-05-18T04:59:35;9.36;71.08
71291;DHT22;59073;51.994;4.448;2023-05-18T05:02:02;9.38;70.98
71291;DHT22;59073;51.994;4.448;2023-05-18T05:04:27;9.74;69.68
71291;DHT22;59073;51.994;4.448;2023-05-18T05:06:53;10.52;67.91
71291;DHT22;59073;51.994;4.448;2023-05-18T05:09:18;10.56;68.02
71291;DHT22;59073;51.994;4.448;2023-05-18T05:11:43;11.50;66.56
71291;DHT22;59073;51.994;4.448;2023-05-18T05:14:09;12.12;63.16
71291;DHT22;59073;51.994;4.448;2023-05-18T05:16:34;12.33;61.44
71291;DHT22;59073;51.994;4.448;2023-05-18T05:19:00;12.47;61.05
71291;DHT22;59073;51.994;4.448;2023-05-18T05:21:26;12.36;60.89
71291;DHT22;59073;51.994;4.448;2023-05-18T05:23:52;12.23;61.52
71291;DHT22;59073;51.994;4.448;2023-05-18T05:26:18;12.47;60.25
71291;DHT22;59073;51.994;4.448;2023-05-18T05:28:44;11.86;62.60
71291;DHT22;59073;51.994;4.448;2023-05-18T05:31:10;11.77;62.35
71291;DHT22;59073;51.994;4.448;2023-05-18T05:33:35;11.48;63.83
71291;DHT22;59073;51.994;4.448;2023-05-18T05:36:01;11.48;65.92
71291;DHT22;59073;51.994;4.448;2023-05-18T05:38:26;12.03;65.31
71291;DHT22;59073;51.994;4.448;2023-05-18T05:40:52;12.68;62.40
71291;DHT22;59073;51.994;4.448;2023-05-18T05:43:17;12.61;59.84
71291;DHT22;59073;51.994;4.448;2023-05-18T05:45:43;12.40;59.30
71291;DHT22;59073;51.994;4.448;2023-05-18T05:48:09;11.30;64.29
71291;DHT22;59073;51.994;4.448;2023-05-18T05:50:35;11.98;62.95
71291;DHT22;59073;51.994;4.448;2023-05-18T05:53:00;11.88;62.75
71291;DHT22;59073;51.994;4.448;2023-05-18T05:55:26;11.75;61.62
71291;DHT22;59073;51.994;4.448;2023-05-18T05:57:51;11.77;64.19
71291;DHT22;59073;51.994;4.448;2023-05-18T06:00:17;12.64;62.15
71291;DHT22;59073;51.994;4.448;2023-05-18T06:02:42;12.68;59.48
71291;DHT22;59073;51.994;4.448;2023-05-18T06:05:08;12.54;59.48
71291;DHT22;59073;51.994;4.448;2023-05-18T06:07:34;12.98;59.03
71291;DHT22;59073;51.994;4.448;2023-05-18T06:10:00;12.44;59.47
71291;DHT22;59073;51.994;4.448;2023-05-18T06:12:25;12.59;62.26
71291;DHT22;59073;51.994;4.448;2023-05-18T06:14:52;13.05;61.35
71291;DHT22;59073;51.994;4.448;2023-05-18T06:17:25;13.94;59.13
71291;DHT22;59073;51.994;4.448;2023-05-18T06:19:50;13.29;56.91
71291;DHT22;59073;51.994;4.448;2023-05-18T06:22:16;13.14;58.43
71291;DHT22;59073;51.994;4.448;2023-05-18T06:24:41;12.56;58.95
71291;DHT22;59073;51.994;4.448;2023-05-18T06:27:07;11.75;60.91
71291;DHT22;59073;51.994;4.448;2023-05-18T06:29:33;12.56;61.63
71291;DHT22;59073;51.994;4.448;2023-05-18T06:31:58;12.59;59.07
71291;DHT22;59073;51.994;4.448;2023-05-18T06:34:24;12.25;60.60
71291;DHT22;59073;51.994;4.448;2023-05-18T06:36:49;12.34;60.94
71291;DHT22;59073;51.994;4.448;2023-05-18T06:39:15;12.16;62.23
71291;DHT22;59073;51.994;4.448;2023-05-18T06:41:40;12.10;61.70
71291;DHT22;59073;51.994;4.448;2023-05-18T06:44:06;12.40;61.11
71291;DHT22;59073;51.994;4.448;2023-05-18T06:46:31;12.73;60.62
71291;DHT22;59073;51.994;4.448;2023-05-18T06:48:57;12.90;59.11
71291;DHT22;59073;51.994;4.448;2023-05-18T06:51:22;12.87;60.38
71291;DHT22;59073;51.994;4.448;2023-05-18T06:53:48;12.84;58.80
71291;DHT22;59073;51.994;4.448;2023-05-18T06:56:14;12.68;60.80
71291;DHT22;59073;51.994;4.448;2023-05-18T06:58:41;12.34;61.78
71291;DHT22;59073;51.994;4.448;2023-05-18T07:01:07;13.02;62.96
71291;DHT22;59073;51.994;4.448;2023-05-18T07:03:32;12.65;58.21
71291;DHT22;59073;51.994;4.448;2023-05-18T07:05:58;11.48;62.38
71291;DHT22;59073;51.994;4.448;2023-05-18T07:08:24;11.77;61.81
71291;DHT22;59073;51.994;4.448;2023-05-18T07:10:50;11.99;61.02
71291;DHT22;59073;51.994;4.448;2023-05-18T07:13:16;12.06;61.38
71291;DHT22;59073;51.994;4.448;2023-05-18T07:15:41;11.45;64.14
71291;DHT22;59073;51.994;4.448;2023-05-18T07:18:07;11.52;62.54
71291;DHT22;59073;51.994;4.448;2023-05-18T07:20:32;11.42;61.65
71291;DHT22;59073;51.994;4.448;2023-05-18T07:22:57;11.44;62.57
71291;DHT22;59073;51.994;4.448;2023-05-18T07:25:23;11.42;60.81
71291;DHT22;59073;51.994;4.448;2023-05-18T07:27:49;11.57;64.12
71291;DHT22;59073;51.994;4.448;2023-05-18T07:30:16;11.55;63.11
71291;DHT22;59073;51.994;4.448;2023-05-18T07:32:42;11.88;61.51
71291;DHT22;59073;51.994;4.448;2023-05-18T07:35:09;12.33;63.84
71291;DHT22;59073;51.994;4.448;2023-05-18T07:37:36;13.10;59.24
71291;DHT22;59073;51.994;4.448;2023-05-18T07:40:01;12.60;58.92
71291;DHT22;59073;51.994;4.448;2023-05-18T07:42:28;12.02;61.28
71291;DHT22;59073;51.994;4.448;2023-05-18T07:44:54;12.03;59.73
71291;DHT22;59073;51.994;4.448;2023-05-18T07:47:19;12.03;60.78
71291;DHT22;59073;51.994;4.448;2023-05-18T07:49:46;12.03;62.35
71291;DHT22;59073;51.994;4.448;2023-05-18T07:52:12;12.02;61.54
71291;DHT22;59073;51.994;4.448;2023-05-18T07:54:38;12.18;59.63
71291;DHT22;59073;51.994;4.448;2023-05-18T07:57:03;12.37;58.75
71291;DHT22;59073;51.994;4.448;2023-05-18T07:59:29;12.39;59.91
71291;DHT22;59073;51.994;4.448;2023-05-18T08:01:54;12.56;59.59
71291;DHT22;59073;51.994;4.448;2023-05-18T08:04:21;12.77;59.90
71291;DHT22;59073;51.994;4.448;2023-05-18T08:06:47;12.32;60.31
71291;DHT22;59073;51.994;4.448;2023-05-18T08:09:12;12.44;61.06
71291;DHT22;59073;51.994;4.448;2023-05-18T08:11:38;12.51;59.34
71291;DHT22;59073;51.994;4.448;2023-05-18T08:14:04;12.61;58.95
71291;DHT22;59073;51.994;4.448;2023-05-18T08:16:29;12.37;61.88
71291;DHT22;59073;51.994;4.448;2023-05-18T08:18:58;12.25;59.42
71291;DHT22;59073;51.994;4.448;2023-05-18T08:21:24;11.81;61.00
71291;DHT22;59073;51.994;4.448;2023-05-18T08:23:49;11.86;60.36
71291;DHT22;59073;51.994;4.448;2023-05-18T08:26:14;11.75;61.65
71291;DHT22;59073;51.994;4.448;2023-05-18T08:28:40;11.64;60.19
71291;DHT22;59073;51.994;4.448;2023-05-18T08:31:06;11.92;61.65
71291;DHT22;59073;51.994;4.448;2023-05-18T08:33:31;11.74;60.19
71291;DHT22;59073;51.994;4.448;2023-05-18T08:35:56;12.32;59.90
71291;DHT22;59073;51.994;4.448;2023-05-18T08:38:22;12.97;58.53
71291;DHT22;59073;51.994;4.448;2023-05-18T08:43:37;12.73;57.96
71291;DHT22;59073;51.994;4.448;2023-05-18T08:46:28;13.21;54.82
71291;DHT22;59073;51.994;4.448;2023-05-18T08:48:58;13.36;54.55
71291;DHT22;59073;51.994;4.448;2023-05-18T08:51:28;13.19;61.05
71291;DHT22;59073;51.994;4.448;2023-05-18T08:53:54;13.15;57.52
71291;DHT22;59073;51.994;4.448;2023-05-18T08:56:24;12.92;60.34
71291;DHT22;59073;51.994;4.448;2023-05-18T08:58:54;12.44;58.37
71291;DHT22;59073;51.994;4.448;2023-05-18T09:01:20;12.70;57.88
71291;DHT22;59073;51.994;4.448;2023-05-18T09:03:48;13.46;57.26
71291;DHT22;59073;51.994;4.448;2023-05-18T09:06:14;13.63;56.11
71291;DHT22;59073;51.994;4.448;2023-05-18T09:08:40;13.36;54.05
71291;DHT22;59073;51.994;4.448;2023-05-18T09:11:07;13.28;59.91
71291;DHT22;59073;51.994;4.448;2023-05-18T09:13:32;12.37;58.10
71291;DHT22;59073;51.994;4.448;2023-05-18T09:15:58;13.05;58.80
71291;DHT22;59073;51.994;4.448;2023-05-18T09:18:23;12.81;55.43
71291;DHT22;59073;51.994;4.448;2023-05-18T09:20:49;13.22;58.34
71291;DHT22;59073;51.994;4.448;2023-05-18T09:23:15;13.76;56.91
71291;DHT22;59073;51.994;4.448;2023-05-18T09:25:43;13.15;54.87
71291;DHT22;59073;51.994;4.448;2023-05-18T09:28:11;12.90;55.98
71291;DHT22;59073;51.994;4.448;2023-05-18T09:30:42;13.42;55.40
71291;DHT22;59073;51.994;4.448;2023-05-18T09:33:18;13.84;54.47
71291;DHT22;59073;51.994;4.448;2023-05-18T09:35:46;13.38;53.33
71291;DHT22;59073;51.994;4.448;2023-05-18T09:38:14;13.12;56.05
71291;DHT22;59073;51.994;4.448;2023-05-18T09:40:44;13.16;54.32
71291;DHT22;59073;51.994;4.448;2023-05-18T09:43:10;12.61;59.47
71291;DHT22;59073;51.994;4.448;2023-05-18T09:45:41;12.91;55.38
71291;DHT22;59073;51.994;4.448;2023-05-18T09:48:08;13.84;58.15
71291;DHT22;59073;51.994;4.448;2023-05-18T09:50:34;13.66;54.94
71291;DHT22;59073;51.994;4.448;2023-05-18T09:53:05;13.60;56.26
71291;DHT22;59073;51.994;4.448;2023-05-18T09:55:30;13.39;55.28
71291;DHT22;59073;51.994;4.448;2023-05-18T09:57:56;13.76;56.39
71291;DHT22;59073;51.994;4.448;2023-05-18T10:00:22;13.26;53.50
71291;DHT22;59073;51.994;4.448;2023-05-18T10:02:48;13.42;55.06
71291;DHT22;59073;51.994;4.448;2023-05-18T10:05:24;13.43;55.43
71291;DHT22;59073;51.994;4.448;2023-05-18T10:07:58;13.62;55.42
71291;DHT22;59073;51.994;4.448;2023-05-18T10:10:27;12.54;58.30
71291;DHT22;59073;51.994;4.448;2023-05-18T10:12:54;12.78;59.85
71291;DHT22;59073;51.994;4.448;2023-05-18T10:15:22;12.26;57.48
71291;DHT22;59073;51.994;4.448;2023-05-18T10:17:49;12.70;58.09
71291;DHT22;59073;51.994;4.448;2023-05-18T10:20:18;13.18;54.64
71291;DHT22;59073;51.994;4.448;2023-05-18T10:22:46;13.42;56.99
71291;DHT22;59073;51.994;4.448;2023-05-18T10:25:18;12.84;57.64
71291;DHT22;59073;51.994;4.448;2023-05-18T10:27:49;13.43;58.32
71291;DHT22;59073;51.994;4.448;2023-05-18T10:30:16;13.79;54.76
71291;DHT22;59073;51.994;4.448;2023-05-18T10:32:42;13.45;54.77
71291;DHT22;59073;51.994;4.448;2023-05-18T10:35:09;13.90;56.40
71291;DHT22;59073;51.994;4.448;2023-05-18T10:37:38;14.11;54.23
71291;DHT22;59073;51.994;4.448;2023-05-18T10:40:06;13.31;52.40
71291;DHT22;59073;51.994;4.448;2023-05-18T10:42:32;13.86;54.72
71291;DHT22;59073;51.994;4.448;2023-05-18T10:44:59;13.65;54.26
71291;DHT22;59073;51.994;4.448;2023-05-18T10:47:28;13.84;54.56
71291;DHT22;59073;51.994;4.448;2023-05-18T10:49:58;14.18;56.07
71291;DHT22;59073;51.994;4.448;2023-05-18T10:52:24;14.35;53.03
71291;DHT22;59073;51.994;4.448;2023-05-18T10:54:57;14.95;55.32
71291;DHT22;59073;51.994;4.448;2023-05-18T10:57:32;14.55;54.92
71291;DHT22;59073;51.994;4.448;2023-05-18T10:59:59;14.51;53.34
71291;DHT22;59073;51.994;4.448;2023-05-18T11:02:26;14.04;53.78
71291;DHT22;59073;51.994;4.448;2023-05-18T11:04:53;14.20;53.01
71291;DHT22;59073;51.994;4.448;2023-05-18T11:07:19;14.38;54.28
71291;DHT22;59073;51.994;4.448;2023-05-18T11:09:47;14.04;55.60
71291;DHT22;59073;51.994;4.448;2023-05-18T11:12:15;14.35;57.44
71291;DHT22;59073;51.994;4.448;2023-05-18T11:14:48;13.58;54.25
71291;DHT22;59073;51.994;4.448;2023-05-18T11:17:22;14.22;53.70
71291;DHT22;59073;51.994;4.448;2023-05-18T11:22:51;14.37;53.55
71291;DHT22;59073;51.994;4.448;2023-05-18T11:27:59;14.44;52.37
71291;DHT22;59073;51.994;4.448;2023-05-18T11:33:12;14.45;53.73
71291;DHT22;59073;51.994;4.448;2023-05-18T11:36:10;14.55;53.69
71291;DHT22;59073;51.994;4.448;2023-05-18T11:39:03;15.00;54.78
71291;DHT22;59073;51.994;4.448;2023-05-18T11:41:36;14.45;53.41
71291;DHT22;59073;51.994;4.448;2023-05-18T11:46:36;14.54;53.18
71291;DHT22;59073;51.994;4.448;2023-05-18T11:49:08;14.48;52.90
71291;DHT22;59073;51.994;4.448;2023-05-18T11:52:00;14.54;54.76
71291;DHT22;59073;51.994;4.448;2023-05-18T11:54:26;14.41;52.81
71291;DHT22;59073;51.994;4.448;2023-05-18T11:56:53;14.64;53.77
71291;DHT22;59073;51.994;4.448;2023-05-18T11:59:37;14.82;54.01
71291;DHT22;59073;51.994;4.448;2023-05-18T12:02:03;14.73;54.36
71291;DHT22;59073;51.994;4.448;2023-05-18T12:04:30;14.78;55.38
71291;DHT22;59073;51.994;4.448;2023-05-18T12:06:58;14.83;56.37
71291;DHT22;59073;51.994;4.448;2023-05-18T12:09:24;15.13;52.98
71291;DHT22;59073;51.994;4.448;2023-05-18T12:11:50;15.31;53.27
71291;DHT22;59073;51.994;4.448;2023-05-18T12:14:18;14.65;54.50
71291;DHT22;59073;51.994;4.448;2023-05-18T12:16:46;14.88;53.39
71291;DHT22;59073;51.994;4.448;2023-05-18T12:19:11;14.67;55.22
71291;DHT22;59073;51.994;4.448;2023-05-18T12:21:37;14.51;54.09
71291;DHT22;59073;51.994;4.448;2023-05-18T12:24:03;14.67;52.98
71291;DHT22;59073;51.994;4.448;2023-05-18T12:26:29;14.44;52.87
71291;DHT22;59073;51.994;4.448;2023-05-18T12:28:58;14.61;53.99
71291;DHT22;59073;51.994;4.448;2023-05-18T12:31:24;14.82;53.74
71291;DHT22;59073;51.994;4.448;2023-05-18T12:33:52;15.02;53.90
71291;DHT22;59073;51.994;4.448;2023-05-18T12:36:19;14.32;53.01
71291;DHT22;59073;51.994;4.448;2023-05-18T12:38:50;14.21;54.02
71291;DHT22;59073;51.994;4.448;2023-05-18T12:41:24;14.00;52.50
71291;DHT22;59073;51.994;4.448;2023-05-18T12:43:51;14.18;54.42
71291;DHT22;59073;51.994;4.448;2023-05-18T12:46:20;14.54;53.91
71291;DHT22;59073;51.994;4.448;2023-05-18T12:48:55;14.86;55.45
71291;DHT22;59073;51.994;4.448;2023-05-18T12:51:22;15.23;53.93
71291;DHT22;59073;51.994;4.448;2023-05-18T12:53:49;14.59;49.94
71291;DHT22;59073;51.994;4.448;2023-05-18T12:56:15;14.54;51.06
71291;DHT22;59073;51.994;4.448;2023-05-18T12:58:54;14.42;54.09
71291;DHT22;59073;51.994;4.448;2023-05-18T13:01:20;14.85;53.48
71291;DHT22;59073;51.994;4.448;2023-05-18T13:03:45;14.55;53.64
71291;DHT22;59073;51.994;4.448;2023-05-18T13:06:11;14.78;54.14
71291;DHT22;59073;51.994;4.448;2023-05-18T13:08:36;15.37;53.19
71291;DHT22;59073;51.994;4.448;2023-05-18T13:11:02;15.47;54.43
71291;DHT22;59073;51.994;4.448;2023-05-18T13:13:27;14.75;55.97
71291;DHT22;59073;51.994;4.448;2023-05-18T13:15:53;14.78;53.52
71291;DHT22;59073;51.994;4.448;2023-05-18T13:18:18;14.41;52.58
71291;DHT22;59073;51.994;4.448;2023-05-18T13:20:47;14.49;51.09
71291;DHT22;59073;51.994;4.448;2023-05-18T13:23:17;14.78;53.79
71291;DHT22;59073;51.994;4.448;2023-05-18T13:25:44;14.58;52.58
71291;DHT22;59073;51.994;4.448;2023-05-18T13:28:12;14.75;52.52
71291;DHT22;59073;51.994;4.448;2023-05-18T13:30:40;14.71;54.72
71291;DHT22;59073;51.994;4.448;2023-05-18T13:33:06;14.44;51.69
71291;DHT22;59073;51.994;4.448;2023-05-18T13:35:36;14.54;53.33
71291;DHT22;59073;51.994;4.448;2023-05-18T13:38:02;14.76;54.22
71291;DHT22;59073;51.994;4.448;2023-05-18T13:40:27;14.95;53.51
71291;DHT22;59073;51.994;4.448;2023-05-18T13:42:53;14.90;54.28
71291;DHT22;59073;51.994;4.448;2023-05-18T13:45:19;14.51;51.33
71291;DHT22;59073;51.994;4.448;2023-05-18T13:47:47;14.96;52.67
71291;DHT22;59073;51.994;4.448;2023-05-18T13:50:18;15.20;50.89
71291;DHT22;59073;51.994;4.448;2023-05-18T13:52:45;15.00;55.50
71291;DHT22;59073;51.994;4.448;2023-05-18T13:55:12;15.30;56.20
71291;DHT22;59073;51.994;4.448;2023-05-18T13:57:38;14.67;53.19
71291;DHT22;59073;51.994;4.448;2023-05-18T14:00:04;14.71;53.78
71291;DHT22;59073;51.994;4.448;2023-05-18T14:02:32;14.73;52.79
71291;DHT22;59073;51.994;4.448;2023-05-18T14:04:58;15.29;51.65
71291;DHT22;59073;51.994;4.448;2023-05-18T14:07:23;15.53;54.03
71291;DHT22;59073;51.994;4.448;2023-05-18T14:09:49;15.29;51.27
71291;DHT22;59073;51.994;4.448;2023-05-18T14:12:14;15.30;52.30
71291;DHT22;59073;51.994;4.448;2023-05-18T14:14:40;15.27;54.56
71291;DHT22;59073;51.994;4.448;2023-05-18T14:17:08;15.36;52.53
71291;DHT22;59073;51.994;4.448;2023-05-18T14:19:33;15.81;53.18
71291;DHT22;59073;51.994;4.448;2023-05-18T14:21:59;15.71;52.88
71291;DHT22;59073;51.994;4.448;2023-05-18T14:24:24;15.44;52.92
71291;DHT22;59073;51.994;4.448;2023-05-18T14:26:49;15.37;52.99
71291;DHT22;59073;51.994;4.448;2023-05-18T14:29:17;15.50;52.68
71291;DHT22;59073;51.994;4.448;2023-05-18T14:31:43;15.53;50.84
71291;DHT22;59073;51.994;4.448;2023-05-18T14:34:08;15.49;55.43
71291;DHT22;59073;51.994;4.448;2023-05-18T14:36:34;15.36;56.72
71291;DHT22;59073;51.994;4.448;2023-05-18T14:38:59;15.33;54.48
71291;DHT22;59073;51.994;4.448;2023-05-18T14:41:24;15.24;54.56
71291;DHT22;59073;51.994;4.448;2023-05-18T14:43:50;15.30;54.59
71291;DHT22;59073;51.994;4.448;2023-05-18T14:46:18;15.44;52.94
71291;DHT22;59073;51.994;4.448;2023-05-18T14:48:43;15.58;53.45
71291;DHT22;59073;51.994;4.448;2023-05-18T14:51:09;15.40;54.61
71291;DHT22;59073;51.994;4.448;2023-05-18T14:53:34;15.78;53.69
71291;DHT22;59073;51.994;4.448;2023-05-18T14:56:00;15.77;52.65
71291;DHT22;59073;51.994;4.448;2023-05-18T14:58:30;15.50;54.97
71291;DHT22;59073;51.994;4.448;2023-05-18T15:00:57;15.50;53.17
71291;DHT22;59073;51.994;4.448;2023-05-18T15:03:22;15.23;53.26
71291;DHT22;59073;51.994;4.448;2023-05-18T15:05:48;15.27;53.90
71291;DHT22;59073;51.994;4.448;2023-05-18T15:08:13;15.16;53.53
71291;DHT22;59073;51.994;4.448;2023-05-18T15:10:39;15.12;55.16
71291;DHT22;59073;51.994;4.448;2023-05-18T15:13:04;15.30;55.02
71291;DHT22;59073;51.994;4.448;2023-05-18T15:15:30;15.00;54.28
71291;DHT22;59073;51.994;4.448;2023-05-18T15:17:55;15.18;55.46
71291;DHT22;59073;51.994;4.448;2023-05-18T15:20:21;15.18;53.17
71291;DHT22;59073;51.994;4.448;2023-05-18T15:22:48;15.23;53.55
71291;DHT22;59073;51.994;4.448;2023-05-18T15:25:15;15.29;52.93
71291;DHT22;59073;51.994;4.448;2023-05-18T15:27:41;15.31;54.13
71291;DHT22;59073;51.994;4.448;2023-05-18T15:30:07;15.65;55.11
71291;DHT22;59073;51.994;4.448;2023-05-18T15:32:39;15.58;55.08
71291;DHT22;59073;51.994;4.448;2023-05-18T15:35:05;15.49;53.24
71291;DHT22;59073;51.994;4.448;2023-05-18T15:37:31;15.62;55.02
71291;DHT22;59073;51.994;4.448;2023-05-18T15:39:56;15.39;54.25
71291;DHT22;59073;51.994;4.448;2023-05-18T15:42:23;15.46;54.20
71291;DHT22;59073;51.994;4.448;2023-05-18T15:44:48;15.40;53.01
71291;DHT22;59073;51.994;4.448;2023-05-18T15:47:13;15.44;53.56
71291;DHT22;59073;51.994;4.448;2023-05-18T15:49:39;15.64;54.54
71291;DHT22;59073;51.994;4.448;2023-05-18T15:52:04;15.61;53.92